sensor_id;sensor_type;location;lat;lon;timestamp;temperature;humidity
14049;DHT22;7099;53.922;10.728;2022-12-15T00:00:24;-5.90;99.90
14049;DHT22;7099;53.922;10.728;2022-12-15T00:04:48;-6.00;99.90
14049;DHT22;7099;53.922;10.728;2022-12-15T00:09:12;-6.00;99.90
14049;DHT22;7099;53.922;10.728;2022-12-15T00:13:36;-6.00;99.90
14049;DHT22;7099;53.922;10.728;2022-12-15T00:18:06;-6.00;99.90
14049;DHT22;7099;53.922;10.728;2022-12-15T00:22:30;-6.10;99.90
14049;DHT22;7099;53.922;10.728;2022-12-15T00:26:53;-6.00;99.90
14049;DHT22;7099;53.922;10.728;2022-12-15T00:31:17;-6.10;99.90
14049;DHT22;7099;53.922;10.728;2022-12-15T00:35:40;-6.10;99.90
14049;DHT22;7099;53.922;10.728;2022-12-15T00:40:04;-6.10;99.90
14049;DHT22;7099;53.922;10.728;2022-12-15T00:44:10;-6.10;99.90
14049;DHT22;7099;53.922;10.728;2022-12-15T00:48:22;-6.10;99.90
14049;DHT22;7099;53.922;10.728;2022-12-15T00:52:27;-6.10;99.90
14049;DHT22;7099;53.922;10.728;2022-12-15T00:56:50;-6.10;99.90
14049;DHT22;7099;53.922;10.728;2022-12-15T01:01:14;-6.10;99.90
14049;DHT22;7099;53.922;10.728;2022-12-15T01:05:38;-6.10;99.90
14049;DHT22;7099;53.922;10.728;2022-12-15T01:10:01;-6.10;99.90
14049;DHT22;7099;53.922;10.728;2022-12-15T01:14:26;-6.00;99.90
14049;DHT22;7099;53.922;10.728;2022-12-15T01:18:49;-6.00;99.90
14049;DHT22;7099;53.922;10.728;2022-12-15T01:23:12;-5.90;99.90
14049;DHT22;7099;53.922;10.728;2022-12-15T01:27:17;-5.90;99.90
14049;DHT22;7099;53.922;10.728;2022-12-15T01:31:22;-5.90;99.90
14049;DHT22;7099;53.922;10.728;2022-12-15T01:35:27;-5.90;99.90
14049;DHT22;7099;53.922;10.728;2022-12-15T01:39:32;-5.90;99.90
14049;DHT22;7099;53.922;10.728;2022-12-15T01:44:14;-5.90;99.90
14049;DHT22;7099;53.922;10.728;2022-12-15T01:48:33;-5.80;99.90
14049;DHT22;7099;53.922;10.728;2022-12-15T01:52:39;-5.80;99.90
14049;DHT22;7099;53.922;10.728;2022-12-15T01:56:47;-5.70;99.90
14049;DHT22;7099;53.922;10.728;2022-12-15T02:00:54;-5.70;99.90
14049;DHT22;7099;53.922;10.728;2022-12-15T02:04:59;-5.70;99.90
14049;DHT22;7099;53.922;10.728;2022-12-15T02:09:05;-5.60;99.90
14049;DHT22;7099;53.922;10.728;2022-12-15T02:13:18;-5.60;99.90
14049;DHT22;7099;53.922;10.728;2022-12-15T02:17:55;-5.60;99.90
14049;DHT22;7099;53.922;10.728;2022-12-15T02:22:30;-5.50;99.90
14049;DHT22;7099;53.922;10.728;2022-12-15T02:27:07;-5.50;99.90
14049;DHT22;7099;53.922;10.728;2022-12-15T02:32:06;-5.50;99.90
14049;DHT22;7099;53.922;10.728;2022-12-15T02:36:32;-5.50;99.90
14049;DHT22;7099;53.922;10.728;2022-12-15T02:40:40;-5.60;99.90
14049;DHT22;7099;53.922;10.728;2022-12-15T02:44:56;-5.60;99.90
14049;DHT22;7099;53.922;10.728;2022-12-15T03:03:30;-5.60;99.90
14049;DHT22;7099;53.922;10.728;2022-12-15T03:07:37;-5.60;99.90
14049;DHT22;7099;53.922;10.728;2022-12-15T03:11:42;-5.60;99.90
14049;DHT22;7099;53.922;10.728;2022-12-15T03:15:47;-5.60;99.90
14049;DHT22;7099;53.922;10.728;2022-12-15T03:19:52;-5.60;99.90
14049;DHT22;7099;53.922;10.728;2022-12-15T03:23:57;-5.60;99.90
14049;DHT22;7099;53.922;10.728;2022-12-15T03:28:02;-5.60;99.90
14049;DHT22;7099;53.922;10.728;2022-12-15T03:32:07;-5.60;99.90
14049;DHT22;7099;53.922;10.728;2022-12-15T03:36:12;-5.70;99.90
14049;DHT22;7099;53.922;10.728;2022-12-15T03:40:17;-5.70;99.90
14049;DHT22;7099;53.922;10.728;2022-12-15T03:44:22;-5.70;99.90
14049;DHT22;7099;53.922;10.728;2022-12-15T03:48:27;-5.80;99.90
14049;DHT22;7099;53.922;10.728;2022-12-15T03:52:32;-5.80;99.90
14049;DHT22;7099;53.922;10.728;2022-12-15T03:56:37;-5.70;99.90
14049;DHT22;7099;53.922;10.728;2022-12-15T04:00:42;-5.80;99.90
14049;DHT22;7099;53.922;10.728;2022-12-15T04:04:47;-5.80;99.90
14049;DHT22;7099;53.922;10.728;2022-12-15T04:08:52;-5.80;99.90
14049;DHT22;7099;53.922;10.728;2022-12-15T04:13:01;-5.80;99.90
14049;DHT22;7099;53.922;10.728;2022-12-15T04:17:09;-5.90;99.90
14049;DHT22;7099;53.922;10.728;2022-12-15T04:21:14;-5.90;99.90
14049;DHT22;7099;53.922;10.728;2022-12-15T04:25:23;-5.90;99.90
14049;DHT22;7099;53.922;10.728;2022-12-15T04:29:47;-5.90;99.90
14049;DHT22;7099;53.922;10.728;2022-12-15T04:34:14;-5.90;99.90
14049;DHT22;7099;53.922;10.728;2022-12-15T04:38:39;-5.90;99.90
14049;DHT22;7099;53.922;10.728;2022-12-15T04:43:03;-5.90;99.90
14049;DHT22;7099;53.922;10.728;2022-12-15T04:47:28;-5.90;99.90
14049;DHT22;7099;53.922;10.728;2022-12-15T04:51:51;-6.00;99.90
14049;DHT22;7099;53.922;10.728;2022-12-15T04:56:15;-6.00;99.90
14049;DHT22;7099;53.922;10.728;2022-12-15T05:00:39;-6.00;99.90
14049;DHT22;7099;53.922;10.728;2022-12-15T05:05:02;-6.00;99.90
14049;DHT22;7099;53.922;10.728;2022-12-15T05:09:26;-6.00;99.90
14049;DHT22;7099;53.922;10.728;2022-12-15T05:13:50;-6.00;99.90
14049;DHT22;7099;53.922;10.728;2022-12-15T05:18:13;-6.10;99.90
14049;DHT22;7099;53.922;10.728;2022-12-15T05:22:37;-6.10;99.90
14049;DHT22;7099;53.922;10.728;2022-12-15T05:27:00;-6.10;99.90
14049;DHT22;7099;53.922;10.728;2022-12-15T05:31:24;-6.10;99.90
14049;DHT22;7099;53.922;10.728;2022-12-15T05:35:47;-6.10;99.90
14049;DHT22;7099;53.922;10.728;2022-12-15T05:39:53;-6.10;99.90
14049;DHT22;7099;53.922;10.728;2022-12-15T05:43:58;-6.20;99.90
14049;DHT22;7099;53.922;10.728;2022-12-15T05:48:04;-6.20;99.90
14049;DHT22;7099;53.922;10.728;2022-12-15T05:52:09;-6.20;99.90
14049;DHT22;7099;53.922;10.728;2022-12-15T05:56:14;-5.80;99.90
14049;DHT22;7099;53.922;10.728;2022-12-15T06:00:20;-6.00;99.90
14049;DHT22;7099;53.922;10.728;2022-12-15T06:04:25;-5.80;99.90
14049;DHT22;7099;53.922;10.728;2022-12-15T06:08:32;-6.00;99.90
14049;DHT22;7099;53.922;10.728;2022-12-15T06:12:38;-6.10;99.90
14049;DHT22;7099;53.922;10.728;2022-12-15T06:16:43;-6.20;99.90
14049;DHT22;7099;53.922;10.728;2022-12-15T06:21:04;-6.20;99.90
14049;DHT22;7099;53.922;10.728;2022-12-15T06:25:10;-6.30;99.90
14049;DHT22;7099;53.922;10.728;2022-12-15T06:29:15;-6.30;99.90
14049;DHT22;7099;53.922;10.728;2022-12-15T06:33:21;-6.30;99.90
14049;DHT22;7099;53.922;10.728;2022-12-15T06:37:26;-6.30;99.90
14049;DHT22;7099;53.922;10.728;2022-12-15T06:41:31;-6.30;99.90
14049;DHT22;7099;53.922;10.728;2022-12-15T06:45:36;-6.30;99.90
14049;DHT22;7099;53.922;10.728;2022-12-15T06:49:41;-6.30;99.90
14049;DHT22;7099;53.922;10.728;2022-12-15T06:53:47;-6.30;99.90
14049;DHT22;7099;53.922;10.728;2022-12-15T06:57:57;-6.30;99.90
14049;DHT22;7099;53.922;10.728;2022-12-15T07:02:02;-6.30;99.90
14049;DHT22;7099;53.922;10.728;2022-12-15T07:06:10;-6.30;99.90
14049;DHT22;7099;53.922;10.728;2022-12-15T07:10:16;-6.30;99.90
14049;DHT22;7099;53.922;10.728;2022-12-15T07:14:21;-6.30;99.90
14049;DHT22;7099;53.922;10.728;2022-12-15T07:18:28;-6.30;99.90
14049;DHT22;7099;53.922;10.728;2022-12-15T07:22:33;-6.30;99.90
14049;DHT22;7099;53.922;10.728;2022-12-15T07:26:39;-6.20;99.90
14049;DHT22;7099;53.922;10.728;2022-12-15T07:30:44;-6.30;99.90
14049;DHT22;7099;53.922;10.728;2022-12-15T07:34:49;-6.20;99.90
14049;DHT22;7099;53.922;10.728;2022-12-15T07:38:59;-6.20;99.90
14049;DHT22;7099;53.922;10.728;2022-12-15T07:43:05;-6.20;99.90
14049;DHT22;7099;53.922;10.728;2022-12-15T07:47:10;-6.20;99.90
14049;DHT22;7099;53.922;10.728;2022-12-15T07:51:15;-6.20;99.90
14049;DHT22;7099;53.922;10.728;2022-12-15T07:55:23;-6.10;99.90
14049;DHT22;7099;53.922;10.728;2022-12-15T07:59:50;-6.10;99.90
14049;DHT22;7099;53.922;10.728;2022-12-15T08:03:55;-6.10;99.90
14049;DHT22;7099;53.922;10.728;2022-12-15T08:08:00;-6.10;99.90
14049;DHT22;7099;53.922;10.728;2022-12-15T08:12:06;-6.00;99.90
14049;DHT22;7099;53.922;10.728;2022-12-15T08:16:10;-6.00;99.90
14049;DHT22;7099;53.922;10.728;2022-12-15T08:20:16;-5.90;99.90
14049;DHT22;7099;53.922;10.728;2022-12-15T08:24:20;-5.90;99.90
14049;DHT22;7099;53.922;10.728;2022-12-15T08:28:25;-5.80;99.90
14049;DHT22;7099;53.922;10.728;2022-12-15T08:32:30;-5.80;99.90
14049;DHT22;7099;53.922;10.728;2022-12-15T08:36:35;-5.70;99.90
14049;DHT22;7099;53.922;10.728;2022-12-15T08:40:40;-5.60;99.90
14049;DHT22;7099;53.922;10.728;2022-12-15T08:44:47;-5.50;99.90
14049;DHT22;7099;53.922;10.728;2022-12-15T08:48:53;-5.40;99.90
14049;DHT22;7099;53.922;10.728;2022-12-15T08:52:59;-5.40;99.90
14049;DHT22;7099;53.922;10.728;2022-12-15T08:57:23;-5.30;99.90
14049;DHT22;7099;53.922;10.728;2022-12-15T09:01:30;-5.20;99.90
14049;DHT22;7099;53.922;10.728;2022-12-15T09:05:37;-5.00;99.90
14049;DHT22;7099;53.922;10.728;2022-12-15T09:09:42;-4.90;99.90
14049;DHT22;7099;53.922;10.728;2022-12-15T09:13:48;-4.80;99.90
14049;DHT22;7099;53.922;10.728;2022-12-15T09:17:53;-4.70;99.90
14049;DHT22;7099;53.922;10.728;2022-12-15T09:22:00;-4.60;99.90
14049;DHT22;7099;53.922;10.728;2022-12-15T09:26:12;-4.40;99.90
14049;DHT22;7099;53.922;10.728;2022-12-15T09:30:18;-4.30;99.90
14049;DHT22;7099;53.922;10.728;2022-12-15T09:34:23;-4.20;99.90
14049;DHT22;7099;53.922;10.728;2022-12-15T09:38:28;-4.10;99.90
14049;DHT22;7099;53.922;10.728;2022-12-15T09:42:33;-4.00;99.90
14049;DHT22;7099;53.922;10.728;2022-12-15T09:51:07;-3.80;99.90
14049;DHT22;7099;53.922;10.728;2022-12-15T09:55:28;-3.60;99.90
14049;DHT22;7099;53.922;10.728;2022-12-15T10:04:38;-3.40;99.90
14049;DHT22;7099;53.922;10.728;2022-12-15T10:09:06;-3.30;99.90
14049;DHT22;7099;53.922;10.728;2022-12-15T10:13:23;-3.20;99.90
14049;DHT22;7099;53.922;10.728;2022-12-15T10:22:15;-3.10;99.90
14049;DHT22;7099;53.922;10.728;2022-12-15T10:26:30;-3.00;99.90
14049;DHT22;7099;53.922;10.728;2022-12-15T10:31:04;-2.90;99.90
14049;DHT22;7099;53.922;10.728;2022-12-15T10:35:38;-2.80;99.90
14049;DHT22;7099;53.922;10.728;2022-12-15T10:39:47;-2.70;99.90
14049;DHT22;7099;53.922;10.728;2022-12-15T10:43:54;-2.60;99.90
14049;DHT22;7099;53.922;10.728;2022-12-15T10:47:59;-2.50;99.90
14049;DHT22;7099;53.922;10.728;2022-12-15T10:56:27;-2.40;99.90
14049;DHT22;7099;53.922;10.728;2022-12-15T11:00:37;-2.30;99.90
14049;DHT22;7099;53.922;10.728;2022-12-15T11:04:54;-2.30;99.90
14049;DHT22;7099;53.922;10.728;2022-12-15T11:09:27;-2.10;99.90
14049;DHT22;7099;53.922;10.728;2022-12-15T11:13:37;-2.00;99.90
14049;DHT22;7099;53.922;10.728;2022-12-15T11:17:42;-2.00;99.90
14049;DHT22;7099;53.922;10.728;2022-12-15T11:21:52;-1.90;99.90
14049;DHT22;7099;53.922;10.728;2022-12-15T11:26:10;-1.80;99.90
14049;DHT22;7099;53.922;10.728;2022-12-15T11:30:20;-1.80;99.90
14049;DHT22;7099;53.922;10.728;2022-12-15T11:34:36;-1.70;99.90
14049;DHT22;7099;53.922;10.728;2022-12-15T11:38:48;-1.60;99.90
14049;DHT22;7099;53.922;10.728;2022-12-15T11:43:05;-1.50;99.90
14049;DHT22;7099;53.922;10.728;2022-12-15T11:51:45;-1.40;99.90
14049;DHT22;7099;53.922;10.728;2022-12-15T12:00:25;-1.20;99.90
14049;DHT22;7099;53.922;10.728;2022-12-15T12:18:26;-0.90;99.90
14049;DHT22;7099;53.922;10.728;2022-12-15T12:22:39;-0.90;99.90
14049;DHT22;7099;53.922;10.728;2022-12-15T12:27:02;-0.80;99.90
14049;DHT22;7099;53.922;10.728;2022-12-15T12:31:26;-0.70;99.90
14049;DHT22;7099;53.922;10.728;2022-12-15T12:40:01;-0.60;99.90
14049;DHT22;7099;53.922;10.728;2022-12-15T12:44:33;-0.50;99.90
14049;DHT22;7099;53.922;10.728;2022-12-15T12:53:25;-0.50;99.90
14049;DHT22;7099;53.922;10.728;2022-12-15T12:57:39;-0.40;99.90
14049;DHT22;7099;53.922;10.728;2022-12-15T13:01:45;-0.40;99.90
14049;DHT22;7099;53.922;10.728;2022-12-15T13:05:52;-0.40;99.90
14049;DHT22;7099;53.922;10.728;2022-12-15T13:10:19;-0.40;99.90
14049;DHT22;7099;53.922;10.728;2022-12-15T13:19:02;-0.20;99.90
14049;DHT22;7099;53.922;10.728;2022-12-15T13:27:37;-0.20;99.90
14049;DHT22;7099;53.922;10.728;2022-12-15T13:31:48;-0.10;99.90
14049;DHT22;7099;53.922;10.728;2022-12-15T13:35:56;-0.10;99.90
14049;DHT22;7099;53.922;10.728;2022-12-15T13:44:38;0.00;99.90
14049;DHT22;7099;53.922;10.728;2022-12-15T13:48:46;0.00;99.90
14049;DHT22;7099;53.922;10.728;2022-12-15T13:53:01;0.00;99.90
14049;DHT22;7099;53.922;10.728;2022-12-15T13:57:30;0.10;99.90
14049;DHT22;7099;53.922;10.728;2022-12-15T14:01:50;0.10;99.90
14049;DHT22;7099;53.922;10.728;2022-12-15T14:05:57;0.20;99.90
14049;DHT22;7099;53.922;10.728;2022-12-15T14:10:05;0.20;99.90
14049;DHT22;7099;53.922;10.728;2022-12-15T14:14:24;0.20;99.90
14049;DHT22;7099;53.922;10.728;2022-12-15T14:18:33;0.20;99.90
14049;DHT22;7099;53.922;10.728;2022-12-15T14:22:40;0.20;99.90
14049;DHT22;7099;53.922;10.728;2022-12-15T14:26:49;0.30;99.90
14049;DHT22;7099;53.922;10.728;2022-12-15T14:30:57;0.30;99.90
14049;DHT22;7099;53.922;10.728;2022-12-15T14:35:04;0.30;99.90
14049;DHT22;7099;53.922;10.728;2022-12-15T14:39:23;0.30;99.90
14049;DHT22;7099;53.922;10.728;2022-12-15T14:43:40;0.40;99.90
14049;DHT22;7099;53.922;10.728;2022-12-15T14:47:52;0.40;99.90
14049;DHT22;7099;53.922;10.728;2022-12-15T14:52:33;0.40;99.90
14049;DHT22;7099;53.922;10.728;2022-12-15T14:56:40;0.40;99.90
14049;DHT22;7099;53.922;10.728;2022-12-15T15:00:50;0.40;99.90
14049;DHT22;7099;53.922;10.728;2022-12-15T15:05:02;0.40;99.90
14049;DHT22;7099;53.922;10.728;2022-12-15T15:09:32;0.40;99.90
14049;DHT22;7099;53.922;10.728;2022-12-15T15:13:44;0.40;99.90
14049;DHT22;7099;53.922;10.728;2022-12-15T15:22:00;0.40;99.90
14049;DHT22;7099;53.922;10.728;2022-12-15T15:26:08;0.40;99.90
14049;DHT22;7099;53.922;10.728;2022-12-15T15:30:20;0.40;99.90
14049;DHT22;7099;53.922;10.728;2022-12-15T15:34:26;0.40;99.90
14049;DHT22;7099;53.922;10.728;2022-12-15T15:38:37;0.40;99.90
14049;DHT22;7099;53.922;10.728;2022-12-15T15:42:44;0.40;99.90
14049;DHT22;7099;53.922;10.728;2022-12-15T15:46:51;0.40;99.90
14049;DHT22;7099;53.922;10.728;2022-12-15T15:50:57;0.40;99.90
14049;DHT22;7099;53.922;10.728;2022-12-15T15:55:03;0.70;99.90
14049;DHT22;7099;53.922;10.728;2022-12-15T15:59:14;0.60;99.90
14049;DHT22;7099;53.922;10.728;2022-12-15T16:03:20;0.60;99.90
14049;DHT22;7099;53.922;10.728;2022-12-15T16:07:27;0.50;99.90
14049;DHT22;7099;53.922;10.728;2022-12-15T16:11:33;0.50;99.90
14049;DHT22;7099;53.922;10.728;2022-12-15T16:15:38;0.50;99.90
14049;DHT22;7099;53.922;10.728;2022-12-15T16:19:43;0.50;99.90
14049;DHT22;7099;53.922;10.728;2022-12-15T16:23:48;0.50;99.90
14049;DHT22;7099;53.922;10.728;2022-12-15T16:27:53;0.50;99.90
14049;DHT22;7099;53.922;10.728;2022-12-15T16:31:58;0.50;99.90
14049;DHT22;7099;53.922;10.728;2022-12-15T16:36:11;0.50;99.90
14049;DHT22;7099;53.922;10.728;2022-12-15T16:40:26;0.50;99.90
14049;DHT22;7099;53.922;10.728;2022-12-15T16:44:31;0.50;99.90
14049;DHT22;7099;53.922;10.728;2022-12-15T16:48:36;0.50;99.90
14049;DHT22;7099;53.922;10.728;2022-12-15T16:52:43;0.50;99.90
14049;DHT22;7099;53.922;10.728;2022-12-15T16:56:52;0.50;99.90
14049;DHT22;7099;53.922;10.728;2022-12-15T17:00:58;0.50;99.90
14049;DHT22;7099;53.922;10.728;2022-12-15T17:05:03;0.50;99.90
14049;DHT22;7099;53.922;10.728;2022-12-15T17:09:21;0.50;99.90
14049;DHT22;7099;53.922;10.728;2022-12-15T17:13:30;0.60;99.90
14049;DHT22;7099;53.922;10.728;2022-12-15T17:17:47;0.60;99.90
14049;DHT22;7099;53.922;10.728;2022-12-15T17:21:52;0.60;99.90
14049;DHT22;7099;53.922;10.728;2022-12-15T17:25:57;0.50;99.90
14049;DHT22;7099;53.922;10.728;2022-12-15T17:30:22;0.60;99.90
14049;DHT22;7099;53.922;10.728;2022-12-15T17:34:29;0.60;99.90
14049;DHT22;7099;53.922;10.728;2022-12-15T17:38:35;0.60;99.90
14049;DHT22;7099;53.922;10.728;2022-12-15T17:42:40;0.60;99.90
14049;DHT22;7099;53.922;10.728;2022-12-15T17:46:45;0.60;99.90
14049;DHT22;7099;53.922;10.728;2022-12-15T17:50:52;0.60;99.90
14049;DHT22;7099;53.922;10.728;2022-12-15T17:54:57;0.60;99.90
14049;DHT22;7099;53.922;10.728;2022-12-15T17:59:02;0.60;99.90
14049;DHT22;7099;53.922;10.728;2022-12-15T18:03:09;0.60;99.90
14049;DHT22;7099;53.922;10.728;2022-12-15T18:07:17;0.60;99.90
14049;DHT22;7099;53.922;10.728;2022-12-15T18:11:23;0.60;99.90
14049;DHT22;7099;53.922;10.728;2022-12-15T18:15:30;0.60;99.90
14049;DHT22;7099;53.922;10.728;2022-12-15T18:19:36;0.60;99.90
14049;DHT22;7099;53.922;10.728;2022-12-15T18:23:41;0.60;99.90
14049;DHT22;7099;53.922;10.728;2022-12-15T18:27:48;0.60;99.90
14049;DHT22;7099;53.922;10.728;2022-12-15T18:31:54;0.60;99.90
14049;DHT22;7099;53.922;10.728;2022-12-15T18:35:59;0.60;99.90
14049;DHT22;7099;53.922;10.728;2022-12-15T18:40:07;0.60;99.90
14049;DHT22;7099;53.922;10.728;2022-12-15T18:44:24;0.60;99.90
14049;DHT22;7099;53.922;10.728;2022-12-15T18:48:32;0.60;99.90
14049;DHT22;7099;53.922;10.728;2022-12-15T18:52:38;0.60;99.90
14049;DHT22;7099;53.922;10.728;2022-12-15T18:56:43;0.60;99.90
14049;DHT22;7099;53.922;10.728;2022-12-15T19:00:50;0.70;99.90
14049;DHT22;7099;53.922;10.728;2022-12-15T19:04:55;0.70;99.90
14049;DHT22;7099;53.922;10.728;2022-12-15T19:09:02;0.70;99.90
14049;DHT22;7099;53.922;10.728;2022-12-15T19:13:15;0.70;99.90
14049;DHT22;7099;53.922;10.728;2022-12-15T19:17:22;0.70;99.90
14049;DHT22;7099;53.922;10.728;2022-12-15T19:21:47;0.70;99.90
14049;DHT22;7099;53.922;10.728;2022-12-15T19:26:03;0.70;99.90
14049;DHT22;7099;53.922;10.728;2022-12-15T19:30:14;0.70;99.90
14049;DHT22;7099;53.922;10.728;2022-12-15T19:34:20;0.70;99.90
14049;DHT22;7099;53.922;10.728;2022-12-15T19:38:28;0.70;99.90
14049;DHT22;7099;53.922;10.728;2022-12-15T19:42:35;0.70;99.90
14049;DHT22;7099;53.922;10.728;2022-12-15T19:46:42;0.70;99.90
14049;DHT22;7099;53.922;10.728;2022-12-15T19:50:48;0.70;99.90
14049;DHT22;7099;53.922;10.728;2022-12-15T19:54:55;0.70;99.90
14049;DHT22;7099;53.922;10.728;2022-12-15T19:59:00;0.70;99.90
14049;DHT22;7099;53.922;10.728;2022-12-15T20:03:05;0.70;99.90
14049;DHT22;7099;53.922;10.728;2022-12-15T20:07:39;0.70;99.90
14049;DHT22;7099;53.922;10.728;2022-12-15T20:11:45;0.70;99.90
14049;DHT22;7099;53.922;10.728;2022-12-15T20:15:50;0.70;99.90
14049;DHT22;7099;53.922;10.728;2022-12-15T20:19:55;0.70;99.90
14049;DHT22;7099;53.922;10.728;2022-12-15T20:24:08;0.70;99.90
14049;DHT22;7099;53.922;10.728;2022-12-15T20:28:19;0.70;99.90
14049;DHT22;7099;53.922;10.728;2022-12-15T20:32:31;0.80;99.90
14049;DHT22;7099;53.922;10.728;2022-12-15T20:36:42;0.80;99.90
14049;DHT22;7099;53.922;10.728;2022-12-15T20:40:47;0.80;99.90
14049;DHT22;7099;53.922;10.728;2022-12-15T20:44:52;0.80;99.90
14049;DHT22;7099;53.922;10.728;2022-12-15T20:48:58;0.70;99.90
14049;DHT22;7099;53.922;10.728;2022-12-15T20:53:04;0.80;99.90
14049;DHT22;7099;53.922;10.728;2022-12-15T20:57:15;0.80;99.90
14049;DHT22;7099;53.922;10.728;2022-12-15T21:01:28;0.80;99.90
14049;DHT22;7099;53.922;10.728;2022-12-15T21:05:36;0.80;99.90
14049;DHT22;7099;53.922;10.728;2022-12-15T21:09:41;0.80;99.90
14049;DHT22;7099;53.922;10.728;2022-12-15T21:13:50;0.80;99.90
14049;DHT22;7099;53.922;10.728;2022-12-15T21:17:56;0.80;99.90
14049;DHT22;7099;53.922;10.728;2022-12-15T21:22:23;0.80;99.90
14049;DHT22;7099;53.922;10.728;2022-12-15T21:26:29;0.80;99.90
14049;DHT22;7099;53.922;10.728;2022-12-15T21:30:34;0.80;99.90
14049;DHT22;7099;53.922;10.728;2022-12-15T21:34:39;0.80;99.90
14049;DHT22;7099;53.922;10.728;2022-12-15T21:38:47;0.80;99.90
14049;DHT22;7099;53.922;10.728;2022-12-15T21:42:55;0.80;99.90
14049;DHT22;7099;53.922;10.728;2022-12-15T21:47:00;0.80;99.90
14049;DHT22;7099;53.922;10.728;2022-12-15T21:51:13;0.80;99.90
14049;DHT22;7099;53.922;10.728;2022-12-15T21:55:21;0.80;99.90
14049;DHT22;7099;53.922;10.728;2022-12-15T21:59:31;0.80;99.90
14049;DHT22;7099;53.922;10.728;2022-12-15T22:03:36;0.80;99.90
14049;DHT22;7099;53.922;10.728;2022-12-15T22:07:41;0.80;99.90
14049;DHT22;7099;53.922;10.728;2022-12-15T22:11:49;0.80;99.90
14049;DHT22;7099;53.922;10.728;2022-12-15T22:15:57;0.70;99.90
14049;DHT22;7099;53.922;10.728;2022-12-15T22:20:16;0.70;99.90
14049;DHT22;7099;53.922;10.728;2022-12-15T22:24:25;0.60;99.90
14049;DHT22;7099;53.922;10.728;2022-12-15T22:28:31;0.60;99.90
14049;DHT22;7099;53.922;10.728;2022-12-15T22:32:36;0.50;99.90
14049;DHT22;7099;53.922;10.728;2022-12-15T22:36:42;0.50;99.90
14049;DHT22;7099;53.922;10.728;2022-12-15T22:40:50;0.40;99.90
14049;DHT22;7099;53.922;10.728;2022-12-15T22:44:59;0.30;99.90
14049;DHT22;7099;53.922;10.728;2022-12-15T22:49:04;0.30;99.90
14049;DHT22;7099;53.922;10.728;2022-12-15T22:53:16;0.20;99.90
14049;DHT22;7099;53.922;10.728;2022-12-15T22:57:26;0.10;99.90
14049;DHT22;7099;53.922;10.728;2022-12-15T23:01:32;0.00;99.90
14049;DHT22;7099;53.922;10.728;2022-12-15T23:05:39;0.00;99.90
14049;DHT22;7099;53.922;10.728;2022-12-15T23:09:45;-0.10;99.90
14049;DHT22;7099;53.922;10.728;2022-12-15T23:13:50;-0.20;99.90
14049;DHT22;7099;53.922;10.728;2022-12-15T23:17:55;-0.20;99.90
14049;DHT22;7099;53.922;10.728;2022-12-15T23:22:00;-0.30;99.90
14049;DHT22;7099;53.922;10.728;2022-12-15T23:26:05;-0.40;99.90
14049;DHT22;7099;53.922;10.728;2022-12-15T23:30:10;-0.40;99.90
14049;DHT22;7099;53.922;10.728;2022-12-15T23:34:16;-0.50;99.90
14049;DHT22;7099;53.922;10.728;2022-12-15T23:38:22;-0.50;99.90
14049;DHT22;7099;53.922;10.728;2022-12-15T23:42:27;-0.60;99.90
14049;DHT22;7099;53.922;10.728;2022-12-15T23:46:32;-0.60;99.90
14049;DHT22;7099;53.922;10.728;2022-12-15T23:50:38;-0.60;99.90
14049;DHT22;7099;53.922;10.728;2022-12-15T23:54:43;-0.60;99.90
14049;DHT22;7099;53.922;10.728;2022-12-15T23:58:54;-0.60;99.90
